sensor_id;sensor_type;location;lat;lon;timestamp;pressure;altitude;pressure_sealevel;temperature;humidity
80542;BME280;69870;51.460;8.842;2023-10-19T00:02:06;96745.34;;;8.96;77.65
80542;BME280;69870;51.460;8.842;2023-10-19T00:04:33;96752.34;;;8.97;78.33
80542;BME280;69870;51.460;8.842;2023-10-19T00:07:02;96755.03;;;8.97;78.24
80542;BME280;69870;51.460;8.842;2023-10-19T00:09:30;96744.19;;;8.97;78.29
80542;BME280;69870;51.460;8.842;2023-10-19T00:12:04;96735.28;;;8.96;78.20
80542;BME280;69870;51.460;8.842;2023-10-19T00:14:34;96739.91;;;8.96;78.39
80542;BME280;69870;51.460;8.842;2023-10-19T00:17:00;96749.22;;;8.95;77.94
80542;BME280;69870;51.460;8.842;2023-10-19T00:19:32;96743.03;;;8.94;78.90
80542;BME280;69870;51.460;8.842;2023-10-19T00:22:04;96739.91;;;8.96;78.89
80542;BME280;69870;51.460;8.842;2023-10-19T00:24:36;96748.44;;;8.94;78.99
80542;BME280;69870;51.460;8.842;2023-10-19T00:27:02;96740.69;;;8.93;79.68
80542;BME280;69870;51.460;8.842;2023-10-19T00:29:40;96729.06;;;8.92;79.72
80542;BME280;69870;51.460;8.842;2023-10-19T00:32:06;96724.44;;;8.93;78.71
80542;BME280;69870;51.460;8.842;2023-10-19T00:34:39;96716.31;;;8.93;79.89
80542;BME280;69870;51.460;8.842;2023-10-19T00:37:08;96720.56;;;8.94;79.46
80542;BME280;69870;51.460;8.842;2023-10-19T00:39:36;96715.13;;;8.94;79.96
80542;BME280;69870;51.460;8.842;2023-10-19T00:42:09;96712.81;;;8.92;79.56
80542;BME280;69870;51.460;8.842;2023-10-19T00:44:35;96707.38;;;8.89;79.72
80542;BME280;69870;51.460;8.842;2023-10-19T00:47:07;96707.75;;;8.83;80.72
80542;BME280;69870;51.460;8.842;2023-10-19T00:49:38;96715.84;;;8.76;81.02
80542;BME280;69870;51.460;8.842;2023-10-19T00:52:07;96713.13;;;8.73;81.49
80542;BME280;69870;51.460;8.842;2023-10-19T00:54:39;96704.22;;;8.72;81.54
80542;BME280;69870;51.460;8.842;2023-10-19T00:57:17;96699.91;;;8.64;83.15
80542;BME280;69870;51.460;8.842;2023-10-19T00:59:45;96696.41;;;8.57;84.17
80542;BME280;69870;51.460;8.842;2023-10-19T01:02:15;96693.69;;;8.53;85.33
80542;BME280;69870;51.460;8.842;2023-10-19T01:04:47;96686.31;;;8.50;86.60
80542;BME280;69870;51.460;8.842;2023-10-19T01:07:23;96686.31;;;8.50;87.05
80542;BME280;69870;51.460;8.842;2023-10-19T01:09:53;96680.91;;;8.50;87.10
80542;BME280;69870;51.460;8.842;2023-10-19T01:12:22;96673.56;;;8.51;87.87
80542;BME280;69870;51.460;8.842;2023-10-19T01:15:02;96677.41;;;8.46;87.88
80542;BME280;69870;51.460;8.842;2023-10-19T01:17:32;96665.75;;;8.42;88.04
80542;BME280;69870;51.460;8.842;2023-10-19T01:20:00;96661.53;;;8.41;88.12
80542;BME280;69870;51.460;8.842;2023-10-19T01:22:34;96669.25;;;8.43;88.46
80542;BME280;69870;51.460;8.842;2023-10-19T01:25:04;96667.72;;;8.45;88.84
80542;BME280;69870;51.460;8.842;2023-10-19T01:27:35;96656.13;;;8.48;88.68
80542;BME280;69870;51.460;8.842;2023-10-19T01:30:02;96655.75;;;8.50;88.63
80542;BME280;69870;51.460;8.842;2023-10-19T01:32:30;96646.09;;;8.52;88.83
80542;BME280;69870;51.460;8.842;2023-10-19T01:34:57;96642.19;;;8.53;89.07
80542;BME280;69870;51.460;8.842;2023-10-19T01:37:24;96639.88;;;8.52;89.35
80542;BME280;69870;51.460;8.842;2023-10-19T01:39:50;96641.44;;;8.53;88.83
80542;BME280;69870;51.460;8.842;2023-10-19T01:42:18;96635.25;;;8.56;88.89
80542;BME280;69870;51.460;8.842;2023-10-19T01:44:45;96630.63;;;8.53;88.86
80542;BME280;69870;51.460;8.842;2023-10-19T01:47:11;96627.13;;;8.52;88.65
80542;BME280;69870;51.460;8.842;2023-10-19T01:49:37;96622.84;;;8.51;88.76
80542;BME280;69870;51.460;8.842;2023-10-19T01:52:03;96625.16;;;8.49;89.13
80542;BME280;69870;51.460;8.842;2023-10-19T01:54:32;96620.53;;;8.46;88.86
80542;BME280;69870;51.460;8.842;2023-10-19T01:56:59;96616.25;;;8.45;89.38
80542;BME280;69870;51.460;8.842;2023-10-19T01:59:28;96614.72;;;8.48;89.39
80542;BME280;69870;51.460;8.842;2023-10-19T02:01:54;96618.59;;;8.50;89.55
80542;BME280;69870;51.460;8.842;2023-10-19T02:04:23;96617.81;;;8.53;89.51
80542;BME280;69870;51.460;8.842;2023-10-19T02:06:49;96616.69;;;8.54;89.16
80542;BME280;69870;51.460;8.842;2023-10-19T02:09:18;96610.88;;;8.56;89.56
80542;BME280;69870;51.460;8.842;2023-10-19T02:11:48;96612.44;;;8.57;89.62
80542;BME280;69870;51.460;8.842;2023-10-19T02:14:16;96608.56;;;8.61;89.66
80542;BME280;69870;51.460;8.842;2023-10-19T02:16:46;96603.16;;;8.65;89.67
80542;BME280;69870;51.460;8.842;2023-10-19T02:19:16;96598.91;;;8.67;89.12
80542;BME280;69870;51.460;8.842;2023-10-19T02:21:42;96602.78;;;8.70;89.61
80542;BME280;69870;51.460;8.842;2023-10-19T02:24:12;96595.06;;;8.72;89.12
80542;BME280;69870;51.460;8.842;2023-10-19T02:26:40;96592.72;;;8.74;89.60
80542;BME280;69870;51.460;8.842;2023-10-19T02:29:07;96589.66;;;8.75;89.65
80542;BME280;69870;51.460;8.842;2023-10-19T02:31:35;96580.34;;;8.76;89.11
80542;BME280;69870;51.460;8.842;2023-10-19T02:34:04;96576.88;;;8.79;89.34
80542;BME280;69870;51.460;8.842;2023-10-19T02:36:31;96575.34;;;8.82;89.26
80542;BME280;69870;51.460;8.842;2023-10-19T02:39:00;96570.66;;;8.82;89.21
80542;BME280;69870;51.460;8.842;2023-10-19T02:41:26;96581.16;;;8.84;89.00
80542;BME280;69870;51.460;8.842;2023-10-19T02:43:54;96571.06;;;8.84;89.22
80542;BME280;69870;51.460;8.842;2023-10-19T02:46:27;96564.88;;;8.88;89.80
80542;BME280;69870;51.460;8.842;2023-10-19T02:48:54;96567.97;;;8.90;88.96
80542;BME280;69870;51.460;8.842;2023-10-19T02:51:21;96558.69;;;8.91;89.56
80542;BME280;69870;51.460;8.842;2023-10-19T02:53:48;96560.22;;;8.92;89.27
80542;BME280;69870;51.460;8.842;2023-10-19T02:56:15;96561.78;;;8.93;89.12
80542;BME280;69870;51.460;8.842;2023-10-19T02:58:44;96555.19;;;8.94;89.71
80542;BME280;69870;51.460;8.842;2023-10-19T03:01:15;96547.84;;;8.94;89.36
80542;BME280;69870;51.460;8.842;2023-10-19T03:03:47;96545.50;;;8.96;89.16
80542;BME280;69870;51.460;8.842;2023-10-19T03:06:17;96537.00;;;8.98;89.31
80542;BME280;69870;51.460;8.842;2023-10-19T03:08:46;96536.63;;;8.99;89.72
80542;BME280;69870;51.460;8.842;2023-10-19T03:11:12;96537.78;;;9.02;88.89
80542;BME280;69870;51.460;8.842;2023-10-19T03:13:39;96544.00;;;9.02;89.71
80542;BME280;69870;51.460;8.842;2023-10-19T03:16:06;96534.69;;;9.00;89.14
80542;BME280;69870;51.460;8.842;2023-10-19T03:18:34;96534.69;;;9.00;89.33
80542;BME280;69870;51.460;8.842;2023-10-19T03:21:01;96540.88;;;9.04;89.60
80542;BME280;69870;51.460;8.842;2023-10-19T03:23:28;96542.03;;;9.06;88.99
80542;BME280;69870;51.460;8.842;2023-10-19T03:25:56;96550.16;;;9.10;89.58
80542;BME280;69870;51.460;8.842;2023-10-19T03:28:36;96545.13;;;9.12;89.53
80542;BME280;69870;51.460;8.842;2023-10-19T03:31:03;96546.28;;;9.14;89.66
80542;BME280;69870;51.460;8.842;2023-10-19T03:33:30;96547.84;;;9.19;89.85
80542;BME280;69870;51.460;8.842;2023-10-19T03:35:57;96549.41;;;9.20;89.28
80542;BME280;69870;51.460;8.842;2023-10-19T03:38:24;96547.47;;;9.24;89.50
80542;BME280;69870;51.460;8.842;2023-10-19T03:40:50;96530.78;;;9.25;89.12
80542;BME280;69870;51.460;8.842;2023-10-19T03:43:26;96540.09;;;9.28;89.28
80542;BME280;69870;51.460;8.842;2023-10-19T03:45:53;96522.63;;;9.29;89.67
80542;BME280;69870;51.460;8.842;2023-10-19T03:48:20;96523.81;;;9.31;89.52
80542;BME280;69870;51.460;8.842;2023-10-19T03:50:52;96516.84;;;9.30;89.14
80542;BME280;69870;51.460;8.842;2023-10-19T03:53:21;96515.28;;;9.33;89.66
80542;BME280;69870;51.460;8.842;2023-10-19T03:55:48;96512.19;;;9.34;89.85
80542;BME280;69870;51.460;8.842;2023-10-19T03:58:15;96518.00;;;9.36;89.72
80542;BME280;69870;51.460;8.842;2023-10-19T04:00:43;96512.94;;;9.38;89.24
80542;BME280;69870;51.460;8.842;2023-10-19T04:03:10;96511.00;;;9.39;89.30
80542;BME280;69870;51.460;8.842;2023-10-19T04:05:38;96517.59;;;9.41;90.03
80542;BME280;69870;51.460;8.842;2023-10-19T04:08:05;96515.28;;;9.43;89.90
80542;BME280;69870;51.460;8.842;2023-10-19T04:10:39;96509.06;;;9.46;90.51
80542;BME280;69870;51.460;8.842;2023-10-19T04:13:10;96508.28;;;9.49;89.08
80542;BME280;69870;51.460;8.842;2023-10-19T04:15:37;96498.56;;;9.52;89.85
80542;BME280;69870;51.460;8.842;2023-10-19T04:18:06;96503.59;;;9.53;89.61
80542;BME280;69870;51.460;8.842;2023-10-19T04:20:35;96503.22;;;9.55;89.63
80542;BME280;69870;51.460;8.842;2023-10-19T04:23:07;96508.25;;;9.56;89.47
80542;BME280;69870;51.460;8.842;2023-10-19T04:25:36;96502.44;;;9.58;89.19
80542;BME280;69870;51.460;8.842;2023-10-19T04:28:03;96496.22;;;9.61;89.91
80542;BME280;69870;51.460;8.842;2023-10-19T04:30:30;96493.50;;;9.65;90.13
80542;BME280;69870;51.460;8.842;2023-10-19T04:32:58;96488.47;;;9.67;89.91
80542;BME280;69870;51.460;8.842;2023-10-19T04:35:28;96486.13;;;9.69;89.58
80542;BME280;69870;51.460;8.842;2023-10-19T04:37:57;96477.19;;;9.72;89.61
80542;BME280;69870;51.460;8.842;2023-10-19T04:40:25;96480.28;;;9.74;90.30
80542;BME280;69870;51.460;8.842;2023-10-19T04:42:52;96481.06;;;9.74;89.69
80542;BME280;69870;51.460;8.842;2023-10-19T04:45:19;96483.00;;;9.74;90.00
80542;BME280;69870;51.460;8.842;2023-10-19T04:47:50;96482.63;;;9.75;89.35
80542;BME280;69870;51.460;8.842;2023-10-19T04:50:18;96482.22;;;9.77;89.35
80542;BME280;69870;51.460;8.842;2023-10-19T04:52:46;96474.84;;;9.77;89.11
80542;BME280;69870;51.460;8.842;2023-10-19T04:55:13;96476.38;;;9.78;89.68
80542;BME280;69870;51.460;8.842;2023-10-19T04:57:40;96472.53;;;9.79;89.27
80542;BME280;69870;51.460;8.842;2023-10-19T05:00:07;96475.22;;;9.79;89.41
80542;BME280;69870;51.460;8.842;2023-10-19T05:02:38;96469.03;;;9.79;89.14
80542;BME280;69870;51.460;8.842;2023-10-19T05:05:05;96467.09;;;9.79;89.74
80542;BME280;69870;51.460;8.842;2023-10-19T05:07:31;96474.44;;;9.79;89.81
80542;BME280;69870;51.460;8.842;2023-10-19T05:10:00;96473.69;;;9.78;89.98
80542;BME280;69870;51.460;8.842;2023-10-19T05:12:27;96481.06;;;9.78;89.79
80542;BME280;69870;51.460;8.842;2023-10-19T05:14:54;96478.72;;;9.76;89.93
80542;BME280;69870;51.460;8.842;2023-10-19T05:17:20;96485.72;;;9.77;89.89
80542;BME280;69870;51.460;8.842;2023-10-19T05:19:48;96483.38;;;9.79;90.40
80542;BME280;69870;51.460;8.842;2023-10-19T05:22:16;96465.53;;;9.82;89.88
80542;BME280;69870;51.460;8.842;2023-10-19T05:24:42;96460.84;;;9.82;89.59
80542;BME280;69870;51.460;8.842;2023-10-19T05:27:10;96459.69;;;9.83;90.10
80542;BME280;69870;51.460;8.842;2023-10-19T05:29:38;96464.72;;;9.85;90.42
80542;BME280;69870;51.460;8.842;2023-10-19T05:32:05;96468.22;;;9.85;90.29
80542;BME280;69870;51.460;8.842;2023-10-19T05:34:32;96469.38;;;9.88;90.17
80542;BME280;69870;51.460;8.842;2023-10-19T05:37:00;96463.16;;;9.91;89.75
80542;BME280;69870;51.460;8.842;2023-10-19T05:39:30;96470.91;;;9.92;90.44
80542;BME280;69870;51.460;8.842;2023-10-19T05:41:58;96468.97;;;9.93;89.64
80542;BME280;69870;51.460;8.842;2023-10-19T05:44:27;96480.59;;;9.93;89.72
80542;BME280;69870;51.460;8.842;2023-10-19T05:46:53;96478.66;;;9.94;89.75
80542;BME280;69870;51.460;8.842;2023-10-19T05:49:22;96480.22;;;9.95;89.59
80542;BME280;69870;51.460;8.842;2023-10-19T05:51:49;96487.94;;;9.96;89.65
80542;BME280;69870;51.460;8.842;2023-10-19T05:54:15;96489.50;;;9.97;89.75
80542;BME280;69870;51.460;8.842;2023-10-19T05:56:43;96489.09;;;9.99;89.65
80542;BME280;69870;51.460;8.842;2023-10-19T05:59:09;96496.84;;;10.00;89.69
80542;BME280;69870;51.460;8.842;2023-10-19T06:01:38;96501.91;;;10.02;89.80
80542;BME280;69870;51.460;8.842;2023-10-19T06:04:05;96501.50;;;10.03;89.51
80542;BME280;69870;51.460;8.842;2023-10-19T06:06:32;96495.66;;;10.05;90.14
80542;BME280;69870;51.460;8.842;2023-10-19T06:08:58;96489.09;;;10.06;89.79
80542;BME280;69870;51.460;8.842;2023-10-19T06:11:28;96485.19;;;10.07;90.38
80542;BME280;69870;51.460;8.842;2023-10-19T06:13:58;96475.88;;;10.08;89.21
80542;BME280;69870;51.460;8.842;2023-10-19T06:16:25;96481.72;;;10.06;89.35
80542;BME280;69870;51.460;8.842;2023-10-19T06:18:54;96482.09;;;10.08;89.47
80542;BME280;69870;51.460;8.842;2023-10-19T06:21:21;96482.47;;;10.10;89.28
80542;BME280;69870;51.460;8.842;2023-10-19T06:23:49;96477.03;;;10.14;89.91
80542;BME280;69870;51.460;8.842;2023-10-19T06:26:16;96490.63;;;10.17;90.20
80542;BME280;69870;51.460;8.842;2023-10-19T06:28:42;96480.50;;;10.21;90.07
80542;BME280;69870;51.460;8.842;2023-10-19T06:31:09;96493.66;;;10.26;89.68
80542;BME280;69870;51.460;8.842;2023-10-19T06:33:36;96488.16;;;10.33;90.26
80542;BME280;69870;51.460;8.842;2023-10-19T06:36:08;96491.22;;;10.43;89.87
80542;BME280;69870;51.460;8.842;2023-10-19T06:38:34;96495.41;;;10.58;90.00
80542;BME280;69870;51.460;8.842;2023-10-19T06:41:10;96489.09;;;10.71;90.22
80542;BME280;69870;51.460;8.842;2023-10-19T06:43:37;96483.59;;;10.82;89.32
80542;BME280;69870;51.460;8.842;2023-10-19T06:46:04;96489.78;;;10.86;89.38
80542;BME280;69870;51.460;8.842;2023-10-19T06:48:31;96488.94;;;10.89;89.26
80542;BME280;69870;51.460;8.842;2023-10-19T06:50:57;96500.59;;;10.93;88.48
80542;BME280;69870;51.460;8.842;2023-10-19T06:53:27;96507.56;;;10.94;89.19
80542;BME280;69870;51.460;8.842;2023-10-19T06:55:53;96502.50;;;10.96;89.33
80542;BME280;69870;51.460;8.842;2023-10-19T06:58:21;96493.97;;;10.97;89.16
80542;BME280;69870;51.460;8.842;2023-10-19T07:00:51;96498.19;;;11.02;88.64
80542;BME280;69870;51.460;8.842;2023-10-19T07:03:22;96493.50;;;11.06;89.30
80542;BME280;69870;51.460;8.842;2023-10-19T07:05:51;96491.50;;;11.10;89.50
80542;BME280;69870;51.460;8.842;2023-10-19T07:08:18;96491.47;;;11.14;88.99
80542;BME280;69870;51.460;8.842;2023-10-19T07:10:47;96482.50;;;11.17;88.74
80542;BME280;69870;51.460;8.842;2023-10-19T07:13:14;96492.97;;;11.18;89.32
80542;BME280;69870;51.460;8.842;2023-10-19T07:15:41;96498.03;;;11.20;89.91
80542;BME280;69870;51.460;8.842;2023-10-19T07:18:08;96490.25;;;11.22;89.08
80542;BME280;69870;51.460;8.842;2023-10-19T07:20:35;96492.91;;;11.25;89.72
80542;BME280;69870;51.460;8.842;2023-10-19T07:23:04;96490.19;;;11.29;89.29
80542;BME280;69870;51.460;8.842;2023-10-19T07:25:36;96494.41;;;11.33;89.16
80542;BME280;69870;51.460;8.842;2023-10-19T07:28:10;96495.91;;;11.38;89.07
80542;BME280;69870;51.460;8.842;2023-10-19T07:30:38;96495.09;;;11.41;88.54
80542;BME280;69870;51.460;8.842;2023-10-19T07:33:05;96496.25;;;11.43;89.74
80542;BME280;69870;51.460;8.842;2023-10-19T07:35:34;96500.91;;;11.46;88.32
80542;BME280;69870;51.460;8.842;2023-10-19T07:38:03;96500.06;;;11.49;89.17
80542;BME280;69870;51.460;8.842;2023-10-19T07:40:32;96506.66;;;11.52;89.24
80542;BME280;69870;51.460;8.842;2023-10-19T07:42:58;96503.13;;;11.55;89.31
80542;BME280;69870;51.460;8.842;2023-10-19T07:45:26;96505.44;;;11.56;88.73
80542;BME280;69870;51.460;8.842;2023-10-19T07:47:53;96505.81;;;11.58;89.52
80542;BME280;69870;51.460;8.842;2023-10-19T07:50:19;96511.25;;;11.62;89.30
80542;BME280;69870;51.460;8.842;2023-10-19T07:52:50;96500.72;;;11.64;88.77
80542;BME280;69870;51.460;8.842;2023-10-19T07:55:17;96492.88;;;11.69;89.19
80542;BME280;69870;51.460;8.842;2023-10-19T07:57:45;96496.34;;;11.73;89.32
80542;BME280;69870;51.460;8.842;2023-10-19T08:00:13;96498.25;;;11.76;89.10
80542;BME280;69870;51.460;8.842;2023-10-19T08:02:41;96499.00;;;11.81;88.68
80542;BME280;69870;51.460;8.842;2023-10-19T08:05:10;96496.63;;;11.83;89.43
80542;BME280;69870;51.460;8.842;2023-10-19T08:07:38;96499.72;;;11.85;88.28
80542;BME280;69870;51.460;8.842;2023-10-19T08:10:06;96504.34;;;11.88;88.85
80542;BME280;69870;51.460;8.842;2023-10-19T08:12:34;96502.34;;;11.92;88.92
80542;BME280;69870;51.460;8.842;2023-10-19T08:15:01;96510.50;;;11.95;88.55
80542;BME280;69870;51.460;8.842;2023-10-19T08:17:29;96507.38;;;11.97;89.05
80542;BME280;69870;51.460;8.842;2023-10-19T08:19:57;96504.19;;;12.02;89.16
80542;BME280;69870;51.460;8.842;2023-10-19T08:22:23;96501.78;;;12.07;89.02
80542;BME280;69870;51.460;8.842;2023-10-19T08:24:51;96500.53;;;12.15;88.83
80542;BME280;69870;51.460;8.842;2023-10-19T08:27:18;96493.03;;;12.23;88.24
80542;BME280;69870;51.460;8.842;2023-10-19T08:29:44;96499.56;;;12.29;88.35
80542;BME280;69870;51.460;8.842;2023-10-19T08:32:12;96494.38;;;12.38;88.85
80542;BME280;69870;51.460;8.842;2023-10-19T08:34:39;96502.47;;;12.45;87.94
80542;BME280;69870;51.460;8.842;2023-10-19T08:37:08;96495.00;;;12.49;88.23
80542;BME280;69870;51.460;8.842;2023-10-19T08:39:36;96498.81;;;12.55;88.41
80542;BME280;69870;51.460;8.842;2023-10-19T08:42:03;96489.00;;;12.61;88.94
80542;BME280;69870;51.460;8.842;2023-10-19T08:44:30;96484.22;;;12.69;88.19
80542;BME280;69870;51.460;8.842;2023-10-19T08:46:56;96482.13;;;12.76;88.26
80542;BME280;69870;51.460;8.842;2023-10-19T08:49:25;96482.81;;;12.84;87.79
80542;BME280;69870;51.460;8.842;2023-10-19T08:51:53;96483.09;;;12.89;88.00
80542;BME280;69870;51.460;8.842;2023-10-19T08:54:22;96485.00;;;12.92;87.41
80542;BME280;69870;51.460;8.842;2023-10-19T08:56:48;96472.50;;;12.95;87.20
80542;BME280;69870;51.460;8.842;2023-10-19T08:59:15;96480.59;;;12.98;88.01
80542;BME280;69870;51.460;8.842;2023-10-19T09:01:43;96471.56;;;13.05;87.54
80542;BME280;69870;51.460;8.842;2023-10-19T09:04:10;96481.91;;;13.17;87.72
80542;BME280;69870;51.460;8.842;2023-10-19T09:06:36;96481.34;;;13.26;87.65
80542;BME280;69870;51.460;8.842;2023-10-19T09:09:07;96481.25;;;13.33;87.61
80542;BME280;69870;51.460;8.842;2023-10-19T09:11:36;96467.94;;;13.35;86.96
80542;BME280;69870;51.460;8.842;2023-10-19T09:14:03;96464.38;;;13.38;87.29
80542;BME280;69870;51.460;8.842;2023-10-19T09:16:31;96461.50;;;13.45;87.60
80542;BME280;69870;51.460;8.842;2023-10-19T09:18:59;96453.53;;;13.54;87.10
80542;BME280;69870;51.460;8.842;2023-10-19T09:21:26;96460.34;;;13.65;86.93
80542;BME280;69870;51.460;8.842;2023-10-19T09:23:55;96464.75;;;13.79;86.70
80542;BME280;69870;51.460;8.842;2023-10-19T09:26:22;96455.50;;;13.92;87.16
80542;BME280;69870;51.460;8.842;2023-10-19T09:28:51;96455.28;;;14.03;87.03
80542;BME280;69870;51.460;8.842;2023-10-19T09:31:19;96460.47;;;14.17;86.35
80542;BME280;69870;51.460;8.842;2023-10-19T09:33:47;96457.50;;;14.28;86.25
80542;BME280;69870;51.460;8.842;2023-10-19T09:36:15;96454.56;;;14.38;85.78
80542;BME280;69870;51.460;8.842;2023-10-19T09:38:46;96441.34;;;14.53;86.03
80542;BME280;69870;51.460;8.842;2023-10-19T09:41:15;96439.53;;;14.62;85.01
80542;BME280;69870;51.460;8.842;2023-10-19T09:43:44;96433.91;;;14.69;85.29
80542;BME280;69870;51.460;8.842;2023-10-19T09:46:20;96429.13;;;14.74;84.74
80542;BME280;69870;51.460;8.842;2023-10-19T09:48:48;96443.75;;;14.83;85.00
80542;BME280;69870;51.460;8.842;2023-10-19T09:51:15;96441.97;;;14.93;84.82
80542;BME280;69870;51.460;8.842;2023-10-19T09:53:45;96433.03;;;15.05;84.63
80542;BME280;69870;51.460;8.842;2023-10-19T09:56:17;96437.25;;;15.38;84.23
80542;BME280;69870;51.460;8.842;2023-10-19T09:58:45;96430.72;;;15.93;83.44
80542;BME280;69870;51.460;8.842;2023-10-19T10:01:15;96438.75;;;16.38;81.98
80542;BME280;69870;51.460;8.842;2023-10-19T10:03:45;96440.66;;;16.53;81.48
80542;BME280;69870;51.460;8.842;2023-10-19T10:06:13;96447.69;;;16.67;80.91
80542;BME280;69870;51.460;8.842;2023-10-19T10:08:41;96444.84;;;16.83;79.94
80542;BME280;69870;51.460;8.842;2023-10-19T10:11:17;96448.16;;;16.91;80.12
80542;BME280;69870;51.460;8.842;2023-10-19T10:13:44;96447.56;;;17.08;79.88
80542;BME280;69870;51.460;8.842;2023-10-19T10:16:12;96440.06;;;17.21;79.06
80542;BME280;69870;51.460;8.842;2023-10-19T10:18:42;96430.25;;;17.33;78.84
80542;BME280;69870;51.460;8.842;2023-10-19T10:21:11;96438.13;;;17.43;78.85
80542;BME280;69870;51.460;8.842;2023-10-19T10:23:41;96440.66;;;17.50;78.24
80542;BME280;69870;51.460;8.842;2023-10-19T10:26:10;96440.31;;;17.48;78.24
80542;BME280;69870;51.460;8.842;2023-10-19T10:28:36;96437.69;;;17.58;78.13
80542;BME280;69870;51.460;8.842;2023-10-19T10:31:11;96431.34;;;17.70;77.30
80542;BME280;69870;51.460;8.842;2023-10-19T10:33:45;96425.59;;;17.77;77.02
80542;BME280;69870;51.460;8.842;2023-10-19T10:36:13;96426.22;;;17.81;76.75
80542;BME280;69870;51.460;8.842;2023-10-19T10:38:40;96418.53;;;17.76;76.42
80542;BME280;69870;51.460;8.842;2023-10-19T10:41:07;96420.22;;;17.73;77.05
80542;BME280;69870;51.460;8.842;2023-10-19T10:43:51;96411.38;;;17.56;75.41
80542;BME280;69870;51.460;8.842;2023-10-19T10:46:19;96406.53;;;17.26;76.82
80542;BME280;69870;51.460;8.842;2023-10-19T10:48:48;96403.16;;;17.44;76.77
80542;BME280;69870;51.460;8.842;2023-10-19T10:51:16;96403.41;;;17.37;77.07
80542;BME280;69870;51.460;8.842;2023-10-19T10:53:42;96410.03;;;17.27;77.25
80542;BME280;69870;51.460;8.842;2023-10-19T10:56:09;96409.59;;;17.28;77.35
80542;BME280;69870;51.460;8.842;2023-10-19T10:58:35;96410.94;;;17.24;77.81
80542;BME280;69870;51.460;8.842;2023-10-19T11:01:02;96410.03;;;17.27;77.69
80542;BME280;69870;51.460;8.842;2023-10-19T11:03:29;96406.00;;;17.19;77.43
80542;BME280;69870;51.460;8.842;2023-10-19T11:06:02;96412.63;;;17.09;77.55
80542;BME280;69870;51.460;8.842;2023-10-19T11:08:29;96418.53;;;17.07;77.47
80542;BME280;69870;51.460;8.842;2023-10-19T11:11:02;96415.16;;;17.03;77.09
80542;BME280;69870;51.460;8.842;2023-10-19T11:13:30;96415.38;;;16.96;77.32
80542;BME280;69870;51.460;8.842;2023-10-19T11:15:58;96407.81;;;16.88;77.38
80542;BME280;69870;51.460;8.842;2023-10-19T11:18:31;96409.81;;;16.74;77.03
80542;BME280;69870;51.460;8.842;2023-10-19T11:21:00;96414.66;;;16.70;77.36
80542;BME280;69870;51.460;8.842;2023-10-19T11:23:40;96415.22;;;16.65;77.06
80542;BME280;69870;51.460;8.842;2023-10-19T11:26:07;96410.59;;;16.62;77.61
80542;BME280;69870;51.460;8.842;2023-10-19T11:28:35;96407.50;;;16.60;77.27
80542;BME280;69870;51.460;8.842;2023-10-19T11:31:11;96411.81;;;16.61;77.43
80542;BME280;69870;51.460;8.842;2023-10-19T11:33:39;96405.00;;;16.66;77.61
80542;BME280;69870;51.460;8.842;2023-10-19T11:36:08;96402.91;;;16.70;77.09
80542;BME280;69870;51.460;8.842;2023-10-19T11:38:39;96404.78;;;16.73;77.15
80542;BME280;69870;51.460;8.842;2023-10-19T11:41:05;96406.72;;;16.85;76.71
80542;BME280;69870;51.460;8.842;2023-10-19T11:43:33;96412.41;;;17.03;76.21
80542;BME280;69870;51.460;8.842;2023-10-19T11:46:00;96405.84;;;17.22;75.94
80542;BME280;69870;51.460;8.842;2023-10-19T11:48:27;96408.38;;;17.29;75.85
80542;BME280;69870;51.460;8.842;2023-10-19T11:50:54;96414.44;;;17.24;75.94
80542;BME280;69870;51.460;8.842;2023-10-19T11:53:22;96407.31;;;17.14;75.82
80542;BME280;69870;51.460;8.842;2023-10-19T11:55:48;96385.72;;;17.04;76.11
80542;BME280;69870;51.460;8.842;2023-10-19T11:58:15;96391.56;;;16.93;76.32
80542;BME280;69870;51.460;8.842;2023-10-19T12:00:41;96389.47;;;16.84;76.30
80542;BME280;69870;51.460;8.842;2023-10-19T12:03:09;96389.72;;;16.77;76.41
80542;BME280;69870;51.460;8.842;2023-10-19T12:05:35;96385.34;;;16.67;76.65
80542;BME280;69870;51.460;8.842;2023-10-19T12:08:03;96388.88;;;16.55;76.92
80542;BME280;69870;51.460;8.842;2023-10-19T12:10:33;96381.19;;;16.50;77.16
80542;BME280;69870;51.460;8.842;2023-10-19T12:13:02;96370.22;;;16.50;77.11
80542;BME280;69870;51.460;8.842;2023-10-19T12:15:30;96371.81;;;16.48;77.48
80542;BME280;69870;51.460;8.842;2023-10-19T12:17:58;96371.19;;;16.44;77.48
80542;BME280;69870;51.460;8.842;2023-10-19T12:20:24;96377.31;;;16.48;77.64
80542;BME280;69870;51.460;8.842;2023-10-19T12:22:51;96374.72;;;16.57;76.99
80542;BME280;69870;51.460;8.842;2023-10-19T12:25:19;96384.25;;;16.65;77.04
80542;BME280;69870;51.460;8.842;2023-10-19T12:27:48;96371.72;;;16.76;76.83
80542;BME280;69870;51.460;8.842;2023-10-19T12:30:14;96376.84;;;16.87;76.62
80542;BME280;69870;51.460;8.842;2023-10-19T12:32:45;96381.22;;;16.97;76.19
80542;BME280;69870;51.460;8.842;2023-10-19T12:35:15;96373.63;;;17.01;75.98
80542;BME280;69870;51.460;8.842;2023-10-19T12:37:43;96378.56;;;17.06;75.69
80542;BME280;69870;51.460;8.842;2023-10-19T12:40:16;96378.56;;;17.06;75.83
80542;BME280;69870;51.460;8.842;2023-10-19T12:42:55;96371.53;;;17.05;75.83
80542;BME280;69870;51.460;8.842;2023-10-19T12:45:24;96367.03;;;16.99;75.72
80542;BME280;69870;51.460;8.842;2023-10-19T12:47:51;96370.69;;;16.83;75.80
80542;BME280;69870;51.460;8.842;2023-10-19T12:50:18;96367.88;;;16.74;75.83
80542;BME280;69870;51.460;8.842;2023-10-19T12:52:48;96371.59;;;16.67;75.97
80542;BME280;69870;51.460;8.842;2023-10-19T12:55:15;96361.75;;;16.57;75.97
80542;BME280;69870;51.460;8.842;2023-10-19T12:57:41;96362.75;;;16.51;75.75
80542;BME280;69870;51.460;8.842;2023-10-19T13:00:10;96366.47;;;16.44;75.87
80542;BME280;69870;51.460;8.842;2023-10-19T13:02:54;96367.34;;;16.41;75.97
80542;BME280;69870;51.460;8.842;2023-10-19T13:05:26;96368.84;;;16.42;76.13
80542;BME280;69870;51.460;8.842;2023-10-19T13:07:53;96362.72;;;16.38;76.12
80542;BME280;69870;51.460;8.842;2023-10-19T13:10:27;96345.47;;;16.38;76.09
80542;BME280;69870;51.460;8.842;2023-10-19T13:12:58;96350.97;;;16.38;76.15